sensor_id;sensor_type;location;lat;lon;timestamp;P1;durP1;ratioP1;P2;durP2;ratioP2
31210;SDS011;17836;50.948;3.946;2022-09-19T00:01:48;9.27;;;1.42;;
31210;SDS011;17836;50.948;3.946;2022-09-19T00:04:15;10.02;;;1.42;;
31210;SDS011;17836;50.948;3.946;2022-09-19T00:06:41;6.82;;;1.30;;
31210;SDS011;17836;50.948;3.946;2022-09-19T00:09:08;9.20;;;1.58;;
31210;SDS011;17836;50.948;3.946;2022-09-19T00:11:34;6.30;;;1.52;;
31210;SDS011;17836;50.948;3.946;2022-09-19T00:13:59;6.13;;;1.45;;
31210;SDS011;17836;50.948;3.946;2022-09-19T00:16:29;18.45;;;2.00;;
31210;SDS011;17836;50.948;3.946;2022-09-19T00:18:55;9.60;;;1.13;;
31210;SDS011;17836;50.948;3.946;2022-09-19T00:21:22;4.18;;;1.05;;
31210;SDS011;17836;50.948;3.946;2022-09-19T00:23:47;5.07;;;1.65;;
31210;SDS011;17836;50.948;3.946;2022-09-19T00:26:31;7.25;;;1.42;;
31210;SDS011;17836;50.948;3.946;2022-09-19T00:28:57;9.13;;;2.05;;
31210;SDS011;17836;50.948;3.946;2022-09-19T00:31:22;7.05;;;1.42;;
31210;SDS011;17836;50.948;3.946;2022-09-19T00:33:47;7.38;;;1.70;;
31210;SDS011;17836;50.948;3.946;2022-09-19T00:36:13;6.55;;;1.55;;
31210;SDS011;17836;50.948;3.946;2022-09-19T00:38:39;4.30;;;1.65;;
31210;SDS011;17836;50.948;3.946;2022-09-19T00:41:04;4.38;;;1.73;;
31210;SDS011;17836;50.948;3.946;2022-09-19T00:43:44;8.25;;;1.50;;
31210;SDS011;17836;50.948;3.946;2022-09-19T00:46:09;11.45;;;2.20;;
31210;SDS011;17836;50.948;3.946;2022-09-19T00:48:34;7.90;;;1.50;;
31210;SDS011;17836;50.948;3.946;2022-09-19T00:51:00;8.05;;;2.03;;
31210;SDS011;17836;50.948;3.946;2022-09-19T00:53:29;14.65;;;2.15;;
31210;SDS011;17836;50.948;3.946;2022-09-19T00:55:56;6.53;;;1.50;;
31210;SDS011;17836;50.948;3.946;2022-09-19T00:58:30;9.13;;;1.57;;
31210;SDS011;17836;50.948;3.946;2022-09-19T01:00:56;4.82;;;1.60;;
31210;SDS011;17836;50.948;3.946;2022-09-19T01:03:22;9.40;;;1.67;;
31210;SDS011;17836;50.948;3.946;2022-09-19T01:16:23;9.13;;;1.55;;
31210;SDS011;17836;50.948;3.946;2022-09-19T01:18:57;8.57;;;1.42;;
31210;SDS011;17836;50.948;3.946;2022-09-19T01:21:38;6.78;;;1.45;;
31210;SDS011;17836;50.948;3.946;2022-09-19T01:29:17;9.52;;;1.50;;
31210;SDS011;17836;50.948;3.946;2022-09-19T01:31:45;8.75;;;1.45;;
31210;SDS011;17836;50.948;3.946;2022-09-19T01:34:16;5.32;;;1.05;;
31210;SDS011;17836;50.948;3.946;2022-09-19T01:36:45;4.68;;;1.23;;
31210;SDS011;17836;50.948;3.946;2022-09-19T01:39:12;4.18;;;1.38;;
31210;SDS011;17836;50.948;3.946;2022-09-19T01:41:46;12.30;;;1.83;;
31210;SDS011;17836;50.948;3.946;2022-09-19T01:44:15;13.93;;;2.20;;
31210;SDS011;17836;50.948;3.946;2022-09-19T01:52:10;9.35;;;1.80;;
31210;SDS011;17836;50.948;3.946;2022-09-19T01:57:27;5.53;;;1.15;;
31210;SDS011;17836;50.948;3.946;2022-09-19T02:00:23;8.15;;;1.30;;
31210;SDS011;17836;50.948;3.946;2022-09-19T02:08:58;8.52;;;1.73;;
31210;SDS011;17836;50.948;3.946;2022-09-19T02:11:11;5.90;;;1.50;;
31210;SDS011;17836;50.948;3.946;2022-09-19T02:13:41;8.00;;;1.73;;
31210;SDS011;17836;50.948;3.946;2022-09-19T02:16:11;9.15;;;1.70;;
31210;SDS011;17836;50.948;3.946;2022-09-19T02:18:47;4.85;;;1.50;;
31210;SDS011;17836;50.948;3.946;2022-09-19T02:21:27;11.30;;;1.65;;
31210;SDS011;17836;50.948;3.946;2022-09-19T02:23:55;7.75;;;1.42;;
31210;SDS011;17836;50.948;3.946;2022-09-19T02:26:24;4.82;;;1.25;;
31210;SDS011;17836;50.948;3.946;2022-09-19T02:28:51;11.00;;;2.17;;
31210;SDS011;17836;50.948;3.946;2022-09-19T02:31:19;8.02;;;2.08;;
31210;SDS011;17836;50.948;3.946;2022-09-19T02:33:46;5.68;;;1.88;;
31210;SDS011;17836;50.948;3.946;2022-09-19T02:36:13;8.13;;;1.55;;
31210;SDS011;17836;50.948;3.946;2022-09-19T02:43:44;7.45;;;1.40;;
31210;SDS011;17836;50.948;3.946;2022-09-19T02:46:17;5.97;;;1.58;;
31210;SDS011;17836;50.948;3.946;2022-09-19T02:51:13;7.47;;;1.40;;
31210;SDS011;17836;50.948;3.946;2022-09-19T02:53:42;10.88;;;1.67;;
31210;SDS011;17836;50.948;3.946;2022-09-19T02:56:09;4.85;;;1.45;;
31210;SDS011;17836;50.948;3.946;2022-09-19T02:58:44;7.85;;;1.65;;
31210;SDS011;17836;50.948;3.946;2022-09-19T03:01:12;5.93;;;1.52;;
31210;SDS011;17836;50.948;3.946;2022-09-19T03:03:58;12.20;;;2.60;;
31210;SDS011;17836;50.948;3.946;2022-09-19T03:09:13;6.93;;;1.45;;
31210;SDS011;17836;50.948;3.946;2022-09-19T03:11:42;7.15;;;1.42;;
31210;SDS011;17836;50.948;3.946;2022-09-19T03:14:11;11.73;;;1.90;;
31210;SDS011;17836;50.948;3.946;2022-09-19T03:16:38;8.63;;;2.17;;
31210;SDS011;17836;50.948;3.946;2022-09-19T03:19:05;5.88;;;1.58;;
31210;SDS011;17836;50.948;3.946;2022-09-19T03:21:32;5.43;;;1.65;;
31210;SDS011;17836;50.948;3.946;2022-09-19T03:23:58;5.72;;;1.38;;
31210;SDS011;17836;50.948;3.946;2022-09-19T03:26:26;9.57;;;1.80;;
31210;SDS011;17836;50.948;3.946;2022-09-19T03:28:53;13.20;;;2.00;;
31210;SDS011;17836;50.948;3.946;2022-09-19T03:31:20;6.63;;;1.65;;
31210;SDS011;17836;50.948;3.946;2022-09-19T03:33:46;10.98;;;1.90;;
31210;SDS011;17836;50.948;3.946;2022-09-19T03:36:11;11.43;;;1.92;;
31210;SDS011;17836;50.948;3.946;2022-09-19T03:38:39;4.60;;;1.67;;
31210;SDS011;17836;50.948;3.946;2022-09-19T03:41:14;9.32;;;1.80;;
31210;SDS011;17836;50.948;3.946;2022-09-19T03:43:40;11.18;;;2.15;;
31210;SDS011;17836;50.948;3.946;2022-09-19T03:46:08;5.63;;;1.35;;
31210;SDS011;17836;50.948;3.946;2022-09-19T03:48:35;5.88;;;1.63;;
31210;SDS011;17836;50.948;3.946;2022-09-19T03:51:02;7.65;;;1.50;;
31210;SDS011;17836;50.948;3.946;2022-09-19T03:53:27;10.10;;;2.28;;
31210;SDS011;17836;50.948;3.946;2022-09-19T03:55:53;9.40;;;2.20;;
31210;SDS011;17836;50.948;3.946;2022-09-19T03:58:19;12.35;;;2.80;;
31210;SDS011;17836;50.948;3.946;2022-09-19T04:00:44;5.47;;;2.27;;
31210;SDS011;17836;50.948;3.946;2022-09-19T04:03:10;7.22;;;1.60;;
31210;SDS011;17836;50.948;3.946;2022-09-19T04:05:36;13.48;;;2.00;;
31210;SDS011;17836;50.948;3.946;2022-09-19T04:08:01;9.82;;;2.13;;
31210;SDS011;17836;50.948;3.946;2022-09-19T04:10:26;7.43;;;1.98;;
31210;SDS011;17836;50.948;3.946;2022-09-19T04:12:52;13.02;;;2.70;;
31210;SDS011;17836;50.948;3.946;2022-09-19T04:15:17;12.27;;;2.22;;
31210;SDS011;17836;50.948;3.946;2022-09-19T04:17:43;5.93;;;2.00;;
31210;SDS011;17836;50.948;3.946;2022-09-19T04:20:08;10.40;;;2.08;;
31210;SDS011;17836;50.948;3.946;2022-09-19T04:22:35;16.73;;;2.83;;
31210;SDS011;17836;50.948;3.946;2022-09-19T04:25:02;12.02;;;2.05;;
31210;SDS011;17836;50.948;3.946;2022-09-19T04:27:27;6.13;;;2.10;;
31210;SDS011;17836;50.948;3.946;2022-09-19T04:29:53;9.40;;;2.27;;
31210;SDS011;17836;50.948;3.946;2022-09-19T04:32:18;8.23;;;2.30;;
31210;SDS011;17836;50.948;3.946;2022-09-19T04:34:43;9.20;;;2.55;;
31210;SDS011;17836;50.948;3.946;2022-09-19T04:37:09;7.23;;;2.30;;
31210;SDS011;17836;50.948;3.946;2022-09-19T04:39:34;9.57;;;2.70;;
31210;SDS011;17836;50.948;3.946;2022-09-19T04:42:00;4.85;;;1.85;;
31210;SDS011;17836;50.948;3.946;2022-09-19T04:44:27;4.38;;;1.58;;
31210;SDS011;17836;50.948;3.946;2022-09-19T04:46:55;12.32;;;1.95;;
31210;SDS011;17836;50.948;3.946;2022-09-19T04:49:20;11.70;;;1.65;;
31210;SDS011;17836;50.948;3.946;2022-09-19T04:51:47;12.77;;;2.58;;
31210;SDS011;17836;50.948;3.946;2022-09-19T04:54:13;10.18;;;2.20;;
31210;SDS011;17836;50.948;3.946;2022-09-19T04:56:39;5.75;;;2.13;;
31210;SDS011;17836;50.948;3.946;2022-09-19T04:59:04;8.25;;;2.50;;
31210;SDS011;17836;50.948;3.946;2022-09-19T05:01:30;6.80;;;1.85;;
31210;SDS011;17836;50.948;3.946;2022-09-19T05:03:56;9.05;;;1.77;;
31210;SDS011;17836;50.948;3.946;2022-09-19T05:06:21;9.35;;;2.47;;
31210;SDS011;17836;50.948;3.946;2022-09-19T05:08:47;8.10;;;1.83;;
31210;SDS011;17836;50.948;3.946;2022-09-19T05:11:12;7.55;;;1.98;;
31210;SDS011;17836;50.948;3.946;2022-09-19T05:13:38;8.80;;;2.70;;
31210;SDS011;17836;50.948;3.946;2022-09-19T05:16:04;14.75;;;2.70;;
31210;SDS011;17836;50.948;3.946;2022-09-19T05:18:29;15.27;;;3.65;;
31210;SDS011;17836;50.948;3.946;2022-09-19T05:21:01;13.00;;;3.20;;
31210;SDS011;17836;50.948;3.946;2022-09-19T05:23:27;11.63;;;3.15;;
31210;SDS011;17836;50.948;3.946;2022-09-19T05:25:52;9.57;;;2.25;;
31210;SDS011;17836;50.948;3.946;2022-09-19T05:28:37;10.38;;;2.55;;
31210;SDS011;17836;50.948;3.946;2022-09-19T05:31:03;12.45;;;3.05;;
31210;SDS011;17836;50.948;3.946;2022-09-19T05:33:33;6.45;;;2.10;;
31210;SDS011;17836;50.948;3.946;2022-09-19T05:35:58;8.02;;;2.05;;
31210;SDS011;17836;50.948;3.946;2022-09-19T05:38:25;7.40;;;1.98;;
31210;SDS011;17836;50.948;3.946;2022-09-19T05:40:55;10.25;;;2.60;;
31210;SDS011;17836;50.948;3.946;2022-09-19T05:43:21;8.88;;;2.45;;
31210;SDS011;17836;50.948;3.946;2022-09-19T05:45:47;7.80;;;1.92;;
31210;SDS011;17836;50.948;3.946;2022-09-19T05:48:12;8.98;;;2.10;;
31210;SDS011;17836;50.948;3.946;2022-09-19T05:50:38;9.70;;;3.30;;
31210;SDS011;17836;50.948;3.946;2022-09-19T05:53:03;9.65;;;2.63;;
31210;SDS011;17836;50.948;3.946;2022-09-19T05:55:47;7.95;;;2.33;;
31210;SDS011;17836;50.948;3.946;2022-09-19T05:58:12;7.20;;;3.00;;
31210;SDS011;17836;50.948;3.946;2022-09-19T06:00:40;8.40;;;2.63;;
31210;SDS011;17836;50.948;3.946;2022-09-19T06:03:06;13.32;;;2.70;;
31210;SDS011;17836;50.948;3.946;2022-09-19T06:05:37;5.93;;;2.60;;
31210;SDS011;17836;50.948;3.946;2022-09-19T06:08:02;10.95;;;3.63;;
31210;SDS011;17836;50.948;3.946;2022-09-19T06:10:32;10.38;;;2.53;;
31210;SDS011;17836;50.948;3.946;2022-09-19T06:12:57;10.68;;;2.83;;
31210;SDS011;17836;50.948;3.946;2022-09-19T06:15:22;13.53;;;2.97;;
31210;SDS011;17836;50.948;3.946;2022-09-19T06:17:57;8.13;;;2.77;;
31210;SDS011;17836;50.948;3.946;2022-09-19T06:20:23;12.30;;;3.20;;
31210;SDS011;17836;50.948;3.946;2022-09-19T06:22:48;9.32;;;2.90;;
31210;SDS011;17836;50.948;3.946;2022-09-19T06:25:15;13.88;;;3.92;;
31210;SDS011;17836;50.948;3.946;2022-09-19T06:27:40;10.90;;;3.42;;
31210;SDS011;17836;50.948;3.946;2022-09-19T06:30:11;7.78;;;2.88;;
31210;SDS011;17836;50.948;3.946;2022-09-19T06:32:37;17.15;;;3.47;;
31210;SDS011;17836;50.948;3.946;2022-09-19T06:35:03;6.93;;;3.72;;
31210;SDS011;17836;50.948;3.946;2022-09-19T06:37:31;13.55;;;3.38;;
31210;SDS011;17836;50.948;3.946;2022-09-19T06:39:57;8.18;;;3.40;;
31210;SDS011;17836;50.948;3.946;2022-09-19T06:42:22;6.32;;;2.40;;
31210;SDS011;17836;50.948;3.946;2022-09-19T06:44:47;7.18;;;2.63;;
31210;SDS011;17836;50.948;3.946;2022-09-19T06:47:14;5.88;;;2.70;;
31210;SDS011;17836;50.948;3.946;2022-09-19T06:49:40;8.35;;;3.03;;
31210;SDS011;17836;50.948;3.946;2022-09-19T06:52:06;6.75;;;2.95;;
31210;SDS011;17836;50.948;3.946;2022-09-19T06:54:31;7.38;;;3.55;;
31210;SDS011;17836;50.948;3.946;2022-09-19T06:56:57;10.43;;;3.55;;
31210;SDS011;17836;50.948;3.946;2022-09-19T06:59:22;8.47;;;3.87;;
31210;SDS011;17836;50.948;3.946;2022-09-19T07:01:47;10.90;;;5.10;;
31210;SDS011;17836;50.948;3.946;2022-09-19T07:04:13;14.75;;;5.07;;
31210;SDS011;17836;50.948;3.946;2022-09-19T07:06:39;12.20;;;3.30;;
31210;SDS011;17836;50.948;3.946;2022-09-19T07:09:04;12.25;;;3.13;;
31210;SDS011;17836;50.948;3.946;2022-09-19T07:11:31;10.68;;;3.80;;
31210;SDS011;17836;50.948;3.946;2022-09-19T07:13:58;7.88;;;3.45;;
31210;SDS011;17836;50.948;3.946;2022-09-19T07:16:23;12.53;;;3.80;;
31210;SDS011;17836;50.948;3.946;2022-09-19T07:18:48;7.20;;;3.50;;
31210;SDS011;17836;50.948;3.946;2022-09-19T07:21:13;18.93;;;4.57;;
31210;SDS011;17836;50.948;3.946;2022-09-19T07:23:38;9.60;;;3.63;;
31210;SDS011;17836;50.948;3.946;2022-09-19T07:26:04;10.02;;;4.00;;
31210;SDS011;17836;50.948;3.946;2022-09-19T07:28:29;13.27;;;4.18;;
31210;SDS011;17836;50.948;3.946;2022-09-19T07:30:57;9.40;;;3.50;;
31210;SDS011;17836;50.948;3.946;2022-09-19T07:33:22;12.50;;;3.92;;
31210;SDS011;17836;50.948;3.946;2022-09-19T07:35:48;7.80;;;3.88;;
31210;SDS011;17836;50.948;3.946;2022-09-19T07:38:16;16.92;;;3.95;;
31210;SDS011;17836;50.948;3.946;2022-09-19T07:40:42;10.38;;;3.30;;
31210;SDS011;17836;50.948;3.946;2022-09-19T07:43:08;8.77;;;3.63;;
31210;SDS011;17836;50.948;3.946;2022-09-19T07:45:35;11.05;;;3.33;;
31210;SDS011;17836;50.948;3.946;2022-09-19T07:48:01;6.72;;;2.90;;
31210;SDS011;17836;50.948;3.946;2022-09-19T07:50:26;11.43;;;2.88;;
31210;SDS011;17836;50.948;3.946;2022-09-19T07:53:01;6.63;;;2.45;;
31210;SDS011;17836;50.948;3.946;2022-09-19T07:55:27;11.25;;;2.95;;
31210;SDS011;17836;50.948;3.946;2022-09-19T07:57:53;13.27;;;2.58;;
31210;SDS011;17836;50.948;3.946;2022-09-19T08:00:20;7.20;;;2.33;;
31210;SDS011;17836;50.948;3.946;2022-09-19T08:02:58;7.97;;;1.88;;
31210;SDS011;17836;50.948;3.946;2022-09-19T08:05:24;10.75;;;2.70;;
31210;SDS011;17836;50.948;3.946;2022-09-19T08:07:50;8.23;;;2.42;;
31210;SDS011;17836;50.948;3.946;2022-09-19T08:10:16;4.32;;;1.90;;
31210;SDS011;17836;50.948;3.946;2022-09-19T08:12:42;10.63;;;2.50;;
31210;SDS011;17836;50.948;3.946;2022-09-19T08:15:14;11.13;;;2.47;;
31210;SDS011;17836;50.948;3.946;2022-09-19T08:17:40;5.38;;;1.85;;
31210;SDS011;17836;50.948;3.946;2022-09-19T08:20:05;7.10;;;1.80;;
31210;SDS011;17836;50.948;3.946;2022-09-19T08:22:31;6.32;;;1.80;;
31210;SDS011;17836;50.948;3.946;2022-09-19T08:24:57;6.88;;;1.80;;
31210;SDS011;17836;50.948;3.946;2022-09-19T08:27:23;11.57;;;2.53;;
31210;SDS011;17836;50.948;3.946;2022-09-19T08:29:48;7.53;;;1.67;;
31210;SDS011;17836;50.948;3.946;2022-09-19T08:32:14;9.18;;;1.80;;
31210;SDS011;17836;50.948;3.946;2022-09-19T08:34:39;6.38;;;1.88;;
31210;SDS011;17836;50.948;3.946;2022-09-19T08:37:04;12.53;;;2.23;;
31210;SDS011;17836;50.948;3.946;2022-09-19T08:39:30;5.10;;;1.67;;
31210;SDS011;17836;50.948;3.946;2022-09-19T08:42:11;9.87;;;1.30;;
31210;SDS011;17836;50.948;3.946;2022-09-19T08:44:49;8.73;;;1.90;;
31210;SDS011;17836;50.948;3.946;2022-09-19T08:47:19;8.73;;;1.33;;
31210;SDS011;17836;50.948;3.946;2022-09-19T08:49:51;5.05;;;1.60;;
31210;SDS011;17836;50.948;3.946;2022-09-19T08:54:43;6.88;;;1.90;;
31210;SDS011;17836;50.948;3.946;2022-09-19T08:57:13;6.35;;;1.60;;
31210;SDS011;17836;50.948;3.946;2022-09-19T08:59:41;6.47;;;1.70;;
31210;SDS011;17836;50.948;3.946;2022-09-19T09:02:18;7.45;;;1.73;;
31210;SDS011;17836;50.948;3.946;2022-09-19T09:04:44;10.35;;;1.55;;
31210;SDS011;17836;50.948;3.946;2022-09-19T09:07:18;9.13;;;1.73;;
31210;SDS011;17836;50.948;3.946;2022-09-19T09:09:59;6.03;;;1.85;;
31210;SDS011;17836;50.948;3.946;2022-09-19T09:12:44;8.98;;;2.53;;
31210;SDS011;17836;50.948;3.946;2022-09-19T09:17:43;9.23;;;1.50;;
31210;SDS011;17836;50.948;3.946;2022-09-19T09:23:11;11.52;;;1.60;;
31210;SDS011;17836;50.948;3.946;2022-09-19T09:25:42;3.72;;;1.15;;
31210;SDS011;17836;50.948;3.946;2022-09-19T09:30:43;8.77;;;1.35;;
31210;SDS011;17836;50.948;3.946;2022-09-19T09:33:12;7.03;;;1.48;;
31210;SDS011;17836;50.948;3.946;2022-09-19T09:35:42;7.97;;;2.00;;
31210;SDS011;17836;50.948;3.946;2022-09-19T09:38:21;5.50;;;1.08;;
31210;SDS011;17836;50.948;3.946;2022-09-19T09:40:57;8.02;;;1.90;;
31210;SDS011;17836;50.948;3.946;2022-09-19T09:43:45;9.50;;;1.45;;
31210;SDS011;17836;50.948;3.946;2022-09-19T09:46:13;5.10;;;1.63;;
31210;SDS011;17836;50.948;3.946;2022-09-19T09:48:39;8.77;;;1.63;;
31210;SDS011;17836;50.948;3.946;2022-09-19T09:56:18;5.13;;;1.40;;
31210;SDS011;17836;50.948;3.946;2022-09-19T10:01:21;6.03;;;1.80;;
31210;SDS011;17836;50.948;3.946;2022-09-19T10:04:12;4.93;;;1.45;;
31210;SDS011;17836;50.948;3.946;2022-09-19T10:06:38;9.50;;;1.52;;
31210;SDS011;17836;50.948;3.946;2022-09-19T10:09:09;4.85;;;1.23;;
31210;SDS011;17836;50.948;3.946;2022-09-19T10:11:39;6.32;;;1.88;;
31210;SDS011;17836;50.948;3.946;2022-09-19T10:14:17;8.67;;;2.43;;
31210;SDS011;17836;50.948;3.946;2022-09-19T10:16:44;6.55;;;1.50;;
31210;SDS011;17836;50.948;3.946;2022-09-19T10:21:40;5.13;;;1.10;;
31210;SDS011;17836;50.948;3.946;2022-09-19T10:24:39;5.97;;;1.27;;
31210;SDS011;17836;50.948;3.946;2022-09-19T10:26:51;5.57;;;1.33;;
31210;SDS011;17836;50.948;3.946;2022-09-19T10:29:22;5.35;;;1.58;;
31210;SDS011;17836;50.948;3.946;2022-09-19T10:31:48;11.87;;;2.17;;
31210;SDS011;17836;50.948;3.946;2022-09-19T10:34:24;3.35;;;1.35;;
31210;SDS011;17836;50.948;3.946;2022-09-19T10:36:56;4.53;;;1.08;;
31210;SDS011;17836;50.948;3.946;2022-09-19T10:39:24;6.88;;;1.17;;
31210;SDS011;17836;50.948;3.946;2022-09-19T10:41:49;4.65;;;1.00;;
31210;SDS011;17836;50.948;3.946;2022-09-19T10:44:24;5.38;;;1.20;;
31210;SDS011;17836;50.948;3.946;2022-09-19T10:46:52;3.08;;;1.33;;
31210;SDS011;17836;50.948;3.946;2022-09-19T10:49:20;3.92;;;1.02;;
31210;SDS011;17836;50.948;3.946;2022-09-19T10:51:48;2.90;;;0.90;;
31210;SDS011;17836;50.948;3.946;2022-09-19T10:54:24;4.78;;;1.05;;
31210;SDS011;17836;50.948;3.946;2022-09-19T10:56:52;6.60;;;1.40;;
31210;SDS011;17836;50.948;3.946;2022-09-19T10:59:26;4.28;;;0.98;;
31210;SDS011;17836;50.948;3.946;2022-09-19T11:02:03;5.95;;;1.33;;
31210;SDS011;17836;50.948;3.946;2022-09-19T11:04:29;5.68;;;1.23;;
31210;SDS011;17836;50.948;3.946;2022-09-19T11:06:58;3.03;;;1.20;;
31210;SDS011;17836;50.948;3.946;2022-09-19T11:09:25;5.53;;;1.55;;
31210;SDS011;17836;50.948;3.946;2022-09-19T11:11:51;9.75;;;1.45;;
31210;SDS011;17836;50.948;3.946;2022-09-19T11:14:23;5.70;;;1.08;;
31210;SDS011;17836;50.948;3.946;2022-09-19T11:17:12;8.52;;;1.30;;
31210;SDS011;17836;50.948;3.946;2022-09-19T11:27:36;5.63;;;1.15;;
31210;SDS011;17836;50.948;3.946;2022-09-19T11:30:09;6.55;;;1.40;;
31210;SDS011;17836;50.948;3.946;2022-09-19T11:42:41;7.05;;;1.08;;
31210;SDS011;17836;50.948;3.946;2022-09-19T11:45:17;6.28;;;1.30;;
31210;SDS011;17836;50.948;3.946;2022-09-19T11:47:53;5.93;;;1.13;;
31210;SDS011;17836;50.948;3.946;2022-09-19T11:53:03;6.47;;;1.13;;
31210;SDS011;17836;50.948;3.946;2022-09-19T12:00:53;6.88;;;1.80;;
31210;SDS011;17836;50.948;3.946;2022-09-19T12:16:05;4.60;;;1.23;;
31210;SDS011;17836;50.948;3.946;2022-09-19T12:18:42;4.97;;;1.23;;
31210;SDS011;17836;50.948;3.946;2022-09-19T12:21:08;2.55;;;0.85;;
31210;SDS011;17836;50.948;3.946;2022-09-19T12:23:50;3.10;;;0.82;;
31210;SDS011;17836;50.948;3.946;2022-09-19T12:26:36;2.13;;;0.88;;
31210;SDS011;17836;50.948;3.946;2022-09-19T12:29:09;4.13;;;0.80;;
31210;SDS011;17836;50.948;3.946;2022-09-19T12:31:36;4.90;;;0.77;;
31210;SDS011;17836;50.948;3.946;2022-09-19T12:34:04;9.00;;;1.27;;
31210;SDS011;17836;50.948;3.946;2022-09-19T12:36:47;5.88;;;0.98;;
31210;SDS011;17836;50.948;3.946;2022-09-19T12:40:01;4.85;;;1.00;;
31210;SDS011;17836;50.948;3.946;2022-09-19T12:42:05;3.28;;;0.60;;
31210;SDS011;17836;50.948;3.946;2022-09-19T12:44:38;8.73;;;1.75;;
31210;SDS011;17836;50.948;3.946;2022-09-19T12:47:24;5.53;;;0.85;;
31210;SDS011;17836;50.948;3.946;2022-09-19T12:54:48;6.03;;;1.30;;
31210;SDS011;17836;50.948;3.946;2022-09-19T12:57:28;4.82;;;1.27;;
31210;SDS011;17836;50.948;3.946;2022-09-19T13:00:02;2.63;;;0.63;;
31210;SDS011;17836;50.948;3.946;2022-09-19T13:05:07;3.60;;;0.90;;
31210;SDS011;17836;50.948;3.946;2022-09-19T13:10:29;3.50;;;0.77;;
31210;SDS011;17836;50.948;3.946;2022-09-19T13:13:03;3.22;;;1.15;;
31210;SDS011;17836;50.948;3.946;2022-09-19T13:17:55;3.85;;;0.70;;
31210;SDS011;17836;50.948;3.946;2022-09-19T13:20:40;5.78;;;0.88;;
31210;SDS011;17836;50.948;3.946;2022-09-19T13:23:27;3.17;;;1.02;;
31210;SDS011;17836;50.948;3.946;2022-09-19T13:31:17;4.38;;;0.77;;
31210;SDS011;17836;50.948;3.946;2022-09-19T13:36:35;2.33;;;0.70;;
31210;SDS011;17836;50.948;3.946;2022-09-19T13:38:59;2.40;;;0.80;;
31210;SDS011;17836;50.948;3.946;2022-09-19T13:47:19;4.22;;;0.70;;
31210;SDS011;17836;50.948;3.946;2022-09-19T13:49:44;5.10;;;1.02;;
31210;SDS011;17836;50.948;3.946;2022-09-19T13:52:16;3.72;;;0.82;;
31210;SDS011;17836;50.948;3.946;2022-09-19T13:57:17;6.03;;;0.95;;
31210;SDS011;17836;50.948;3.946;2022-09-19T14:10:15;2.50;;;0.70;;
31210;SDS011;17836;50.948;3.946;2022-09-19T14:15:38;7.50;;;1.10;;
31210;SDS011;17836;50.948;3.946;2022-09-19T14:20:55;2.33;;;0.70;;
31210;SDS011;17836;50.948;3.946;2022-09-19T14:23:21;2.28;;;0.68;;
31210;SDS011;17836;50.948;3.946;2022-09-19T14:25:55;5.30;;;1.00;;
31210;SDS011;17836;50.948;3.946;2022-09-19T14:46:55;6.18;;;1.00;;
31210;SDS011;17836;50.948;3.946;2022-09-19T14:51:52;2.22;;;0.63;;
31210;SDS011;17836;50.948;3.946;2022-09-19T14:56:57;8.00;;;1.13;;
31210;SDS011;17836;50.948;3.946;2022-09-19T14:59:23;5.78;;;1.40;;
31210;SDS011;17836;50.948;3.946;2022-09-19T15:01:49;2.70;;;0.60;;
31210;SDS011;17836;50.948;3.946;2022-09-19T15:04:20;7.03;;;0.90;;
31210;SDS011;17836;50.948;3.946;2022-09-19T15:06:52;5.63;;;0.95;;
31210;SDS011;17836;50.948;3.946;2022-09-19T15:11:51;4.07;;;0.80;;
31210;SDS011;17836;50.948;3.946;2022-09-19T15:14:19;4.07;;;0.60;;
31210;SDS011;17836;50.948;3.946;2022-09-19T15:16:47;5.97;;;1.02;;
31210;SDS011;17836;50.948;3.946;2022-09-19T15:19:16;3.78;;;0.77;;
31210;SDS011;17836;50.948;3.946;2022-09-19T15:21:42;3.72;;;0.55;;
31210;SDS011;17836;50.948;3.946;2022-09-19T15:24:10;3.58;;;0.85;;
31210;SDS011;17836;50.948;3.946;2022-09-19T15:26:40;8.38;;;0.75;;
31210;SDS011;17836;50.948;3.946;2022-09-19T15:31:34;4.53;;;0.57;;
31210;SDS011;17836;50.948;3.946;2022-09-19T15:34:02;5.55;;;0.60;;
31210;SDS011;17836;50.948;3.946;2022-09-19T15:36:28;3.45;;;0.57;;
31210;SDS011;17836;50.948;3.946;2022-09-19T15:38:55;6.70;;;0.90;;
31210;SDS011;17836;50.948;3.946;2022-09-19T15:41:23;3.15;;;0.88;;
31210;SDS011;17836;50.948;3.946;2022-09-19T15:43:49;1.85;;;0.60;;
31210;SDS011;17836;50.948;3.946;2022-09-19T15:49:00;4.65;;;0.85;;
31210;SDS011;17836;50.948;3.946;2022-09-19T15:51:30;3.63;;;1.25;;
31210;SDS011;17836;50.948;3.946;2022-09-19T15:53:57;7.25;;;0.82;;
31210;SDS011;17836;50.948;3.946;2022-09-19T15:56:23;4.80;;;0.90;;
31210;SDS011;17836;50.948;3.946;2022-09-19T15:58:58;3.35;;;0.60;;
31210;SDS011;17836;50.948;3.946;2022-09-19T16:01:27;5.32;;;0.98;;
31210;SDS011;17836;50.948;3.946;2022-09-19T16:04:13;2.72;;;0.80;;
31210;SDS011;17836;50.948;3.946;2022-09-19T16:06:43;1.52;;;0.60;;
31210;SDS011;17836;50.948;3.946;2022-09-19T16:09:32;2.90;;;0.95;;
31210;SDS011;17836;50.948;3.946;2022-09-19T16:12:00;3.25;;;0.80;;
31210;SDS011;17836;50.948;3.946;2022-09-19T16:14:26;5.60;;;1.10;;
31210;SDS011;17836;50.948;3.946;2022-09-19T16:16:53;4.60;;;0.85;;
31210;SDS011;17836;50.948;3.946;2022-09-19T16:19:19;3.80;;;1.10;;
31210;SDS011;17836;50.948;3.946;2022-09-19T16:21:45;10.40;;;1.05;;
31210;SDS011;17836;50.948;3.946;2022-09-19T16:24:16;3.08;;;1.15;;
31210;SDS011;17836;50.948;3.946;2022-09-19T16:26:42;3.00;;;0.60;;
31210;SDS011;17836;50.948;3.946;2022-09-19T16:29:09;2.85;;;0.68;;
31210;SDS011;17836;50.948;3.946;2022-09-19T16:31:36;2.10;;;0.60;;
31210;SDS011;17836;50.948;3.946;2022-09-19T16:34:26;4.70;;;0.90;;
31210;SDS011;17836;50.948;3.946;2022-09-19T16:36:48;2.88;;;1.10;;
31210;SDS011;17836;50.948;3.946;2022-09-19T16:39:15;4.32;;;0.80;;
31210;SDS011;17836;50.948;3.946;2022-09-19T16:41:42;2.40;;;0.70;;
31210;SDS011;17836;50.948;3.946;2022-09-19T16:46:48;1.83;;;0.65;;
31210;SDS011;17836;50.948;3.946;2022-09-19T16:49:14;2.67;;;0.73;;
31210;SDS011;17836;50.948;3.946;2022-09-19T16:51:39;2.70;;;0.93;;
31210;SDS011;17836;50.948;3.946;2022-09-19T16:54:05;4.15;;;0.70;;
31210;SDS011;17836;50.948;3.946;2022-09-19T16:56:37;3.22;;;0.60;;
31210;SDS011;17836;50.948;3.946;2022-09-19T16:59:07;4.03;;;1.05;;
31210;SDS011;17836;50.948;3.946;2022-09-19T17:01:33;9.48;;;1.13;;
31210;SDS011;17836;50.948;3.946;2022-09-19T17:03:58;10.87;;;3.13;;
31210;SDS011;17836;50.948;3.946;2022-09-19T17:06:28;4.93;;;1.23;;
31210;SDS011;17836;50.948;3.946;2022-09-19T17:11:20;3.00;;;0.80;;
31210;SDS011;17836;50.948;3.946;2022-09-19T17:13:45;4.90;;;0.65;;
31210;SDS011;17836;50.948;3.946;2022-09-19T17:16:11;5.40;;;1.17;;
31210;SDS011;17836;50.948;3.946;2022-09-19T17:18:37;6.22;;;1.10;;
31210;SDS011;17836;50.948;3.946;2022-09-19T17:21:05;1.50;;;0.60;;
31210;SDS011;17836;50.948;3.946;2022-09-19T17:23:32;2.42;;;0.75;;
31210;SDS011;17836;50.948;3.946;2022-09-19T17:25:57;6.60;;;0.90;;
31210;SDS011;17836;50.948;3.946;2022-09-19T17:28:25;4.25;;;0.80;;
31210;SDS011;17836;50.948;3.946;2022-09-19T17:30:51;3.78;;;0.95;;
31210;SDS011;17836;50.948;3.946;2022-09-19T17:33:17;5.80;;;1.10;;
31210;SDS011;17836;50.948;3.946;2022-09-19T17:35:43;4.13;;;1.35;;
31210;SDS011;17836;50.948;3.946;2022-09-19T17:38:09;4.75;;;0.60;;
31210;SDS011;17836;50.948;3.946;2022-09-19T17:40:35;4.22;;;1.02;;
31210;SDS011;17836;50.948;3.946;2022-09-19T17:43:02;5.80;;;1.27;;
31210;SDS011;17836;50.948;3.946;2022-09-19T17:45:28;6.97;;;1.20;;
31210;SDS011;17836;50.948;3.946;2022-09-19T17:47:56;5.15;;;1.35;;
31210;SDS011;17836;50.948;3.946;2022-09-19T17:50:21;4.30;;;0.98;;
31210;SDS011;17836;50.948;3.946;2022-09-19T17:52:47;3.28;;;1.02;;
31210;SDS011;17836;50.948;3.946;2022-09-19T17:55:12;6.00;;;1.00;;
31210;SDS011;17836;50.948;3.946;2022-09-19T17:57:38;7.22;;;0.95;;